createdAt,value
2018-03-19T00:02:18.317Z,34.17
2018-03-19T00:04:45.875Z,41.70
2018-03-19T00:07:13.434Z,41.00
2018-03-19T00:09:41.003Z,44.50
2018-03-19T00:12:08.628Z,27.00
2018-03-19T00:14:36.203Z,29.97
2018-03-19T00:17:03.824Z,26.80
2018-03-19T00:19:31.460Z,35.27
2018-03-19T00:21:59.033Z,33.33
2018-03-19T00:24:26.660Z,30.27
2018-03-19T00:26:54.234Z,39.40
2018-03-19T00:29:21.797Z,37.63
2018-03-19T00:31:49.440Z,37.80
2018-03-19T00:34:16.997Z,32.67
2018-03-19T00:36:44.640Z,39.90
2018-03-19T00:39:12.210Z,27.20
2018-03-19T00:41:39.907Z,37.53
2018-03-19T00:44:07.471Z,27.00
2018-03-19T00:46:35.034Z,36.30
2018-03-19T00:49:02.672Z,31.40
2018-03-19T00:51:30.243Z,35.03
2018-03-19T00:53:57.884Z,35.07
2018-03-19T00:56:25.454Z,34.80
2018-03-19T00:58:53.107Z,38.13
2018-03-19T01:01:20.685Z,29.03
2018-03-19T01:03:48.363Z,38.50
2018-03-19T01:06:15.928Z,34.87
2018-03-19T01:08:43.490Z,34.00
2018-03-19T01:11:11.059Z,34.33
2018-03-19T01:13:38.645Z,32.50
2018-03-19T01:16:06.217Z,30.07
2018-03-19T01:18:33.779Z,30.53
2018-03-19T01:21:01.342Z,28.70
2018-03-19T01:23:28.966Z,33.53
2018-03-19T01:25:56.537Z,40.87
2018-03-19T01:28:24.158Z,29.50
2018-03-19T01:30:51.797Z,42.03
2018-03-19T01:33:19.419Z,38.40
2018-03-19T01:35:47.039Z,31.60
2018-03-19T01:38:14.613Z,34.97
2018-03-19T01:40:42.178Z,32.57
2018-03-19T01:43:09.754Z,30.27
2018-03-19T01:45:37.320Z,38.97
2018-03-19T01:48:04.892Z,36.73
2018-03-19T01:50:32.451Z,38.60
2018-03-19T01:53:00.036Z,29.40
2018-03-19T01:55:27.674Z,28.67
2018-03-19T01:57:55.271Z,23.07
2018-03-19T02:00:22.900Z,29.97
2018-03-19T02:02:50.518Z,36.10
2018-03-19T02:05:18.093Z,27.50
2018-03-19T02:07:45.657Z,34.53
2018-03-19T02:10:13.278Z,22.83
2018-03-19T02:12:40.857Z,24.20
2018-03-19T02:15:08.424Z,28.87
2018-03-19T02:17:36.001Z,33.90
2018-03-19T02:20:03.659Z,38.87
2018-03-19T02:22:31.227Z,31.17
2018-03-19T02:24:58.889Z,27.77
2018-03-19T02:27:26.579Z,34.40
2018-03-19T02:29:54.202Z,32.63
2018-03-19T02:32:21.780Z,27.13
2018-03-19T02:34:49.360Z,26.80
2018-03-19T02:37:17.001Z,21.83
2018-03-19T02:39:44.585Z,23.23
2018-03-19T02:42:12.150Z,23.73
2018-03-19T02:44:39.741Z,29.33
2018-03-19T02:47:07.307Z,26.83
2018-03-19T02:49:34.967Z,27.67
2018-03-19T02:52:02.538Z,26.67
2018-03-19T02:54:30.120Z,23.83
2018-03-19T02:56:57.696Z,21.53
2018-03-19T02:59:25.324Z,26.53
2018-03-19T03:01:52.920Z,28.83
2018-03-19T03:04:20.493Z,28.13
2018-03-19T03:06:48.070Z,24.73
2018-03-19T03:09:15.648Z,27.83
2018-03-19T03:11:43.281Z,30.40
2018-03-19T03:14:10.856Z,23.93
2018-03-19T03:16:38.442Z,28.13
2018-03-19T03:19:06.019Z,25.93
2018-03-19T03:21:33.642Z,25.93
2018-03-19T03:24:01.283Z,27.57
2018-03-19T03:26:28.854Z,33.03
2018-03-19T03:28:56.494Z,21.47
2018-03-19T03:31:24.057Z,30.10
2018-03-19T03:33:51.710Z,33.60
2018-03-19T03:36:19.289Z,25.00
2018-03-19T03:38:46.858Z,25.00
2018-03-19T03:41:14.433Z,23.93
2018-03-19T03:43:42.002Z,22.77
2018-03-19T03:46:09.615Z,22.67
2018-03-19T03:48:37.220Z,22.30
2018-03-19T03:51:04.809Z,28.97
2018-03-19T03:53:32.377Z,28.10
2018-03-19T03:56:00.003Z,24.80
2018-03-19T03:58:27.572Z,27.53
2018-03-19T04:00:55.142Z,24.53
2018-03-19T04:03:22.776Z,28.83
2018-03-19T04:05:50.348Z,23.63
2018-03-19T04:08:17.984Z,29.17
2018-03-19T04:10:45.551Z,32.93
2018-03-19T04:13:13.199Z,26.67
2018-03-19T04:15:40.773Z,24.10
2018-03-19T04:18:08.390Z,22.60
2018-03-19T04:20:35.971Z,27.70
2018-03-19T04:23:03.604Z,25.57
2018-03-19T04:25:31.174Z,30.93
2018-03-19T04:27:58.795Z,26.13
2018-03-19T04:30:26.432Z,20.77
2018-03-19T04:32:53.997Z,31.07
2018-03-19T04:35:21.648Z,31.63
2018-03-19T04:37:49.231Z,25.07
2018-03-19T04:40:16.865Z,27.03
2018-03-19T04:42:44.444Z,30.17
2018-03-19T04:45:12.010Z,27.23
2018-03-19T04:47:39.582Z,31.37
2018-03-19T04:50:07.148Z,31.43
2018-03-19T04:52:34.728Z,27.80
2018-03-19T04:55:02.311Z,29.50
2018-03-19T04:57:29.879Z,26.17
2018-03-19T04:59:57.440Z,25.70
2018-03-19T05:02:25.051Z,26.40
2018-03-19T05:04:52.674Z,24.17
2018-03-19T05:07:20.238Z,26.53
2018-03-19T05:09:47.818Z,28.90
2018-03-19T05:12:15.384Z,32.57
2018-03-19T05:14:42.972Z,26.00
2018-03-19T05:17:10.608Z,30.33
2018-03-19T05:19:38.242Z,40.30
2018-03-19T05:22:05.809Z,30.33
2018-03-19T05:24:33.451Z,30.00
2018-03-19T05:27:01.020Z,31.33
2018-03-19T05:29:28.591Z,32.47
2018-03-19T05:31:56.206Z,38.83
2018-03-19T05:34:23.844Z,37.13
2018-03-19T05:36:51.480Z,32.23
2018-03-19T05:39:19.110Z,33.37
2018-03-19T05:41:46.680Z,32.20
2018-03-19T05:44:14.247Z,30.03
2018-03-19T05:46:41.873Z,29.13
2018-03-19T05:49:09.456Z,28.73
2018-03-19T05:51:37.089Z,28.37
2018-03-19T05:54:04.673Z,24.83
2018-03-19T05:56:32.238Z,32.85
2018-03-19T05:58:59.923Z,25.27
2018-03-19T06:01:27.492Z,32.63
2018-03-19T06:03:55.061Z,26.50
2018-03-19T06:06:23.026Z,26.97
2018-03-19T06:08:50.808Z,29.67
2018-03-19T06:11:18.370Z,30.80
2018-03-19T06:13:45.987Z,28.90
2018-03-19T06:16:13.562Z,26.80
2018-03-19T06:18:41.133Z,23.93
2018-03-19T06:21:08.702Z,26.27
2018-03-19T06:23:36.284Z,36.07
2018-03-19T06:26:03.899Z,43.13
2018-03-19T06:28:31.476Z,25.47
2018-03-19T06:30:59.103Z,27.27
2018-03-19T06:33:26.738Z,23.20
2018-03-19T06:35:54.342Z,22.77
2018-03-19T06:38:22.011Z,24.23
2018-03-19T06:40:49.574Z,22.53
2018-03-19T06:43:17.148Z,28.97
2018-03-19T06:45:44.791Z,28.70
2018-03-19T06:48:12.450Z,24.43
2018-03-19T06:50:40.028Z,23.33
2018-03-19T06:53:07.589Z,20.33
2018-03-19T06:55:35.299Z,24.13
2018-03-19T06:58:02.953Z,19.60
2018-03-19T07:00:30.520Z,18.57
2018-03-19T07:02:58.090Z,19.20
2018-03-19T07:05:25.655Z,17.43
2018-03-19T07:07:53.291Z,23.90
2018-03-19T07:10:22.584Z,24.10
2018-03-19T07:12:50.264Z,21.13
2018-03-19T07:15:17.823Z,22.53
2018-03-19T07:17:45.443Z,21.40
2018-03-19T07:20:13.018Z,23.77
2018-03-19T07:22:40.645Z,29.33
2018-03-19T07:25:08.275Z,18.63
2018-03-19T07:27:35.894Z,22.10
2018-03-19T07:30:03.480Z,26.77
2018-03-19T07:32:31.038Z,17.63
2018-03-19T07:34:58.598Z,19.43
2018-03-19T07:37:26.189Z,20.10
2018-03-19T07:39:53.759Z,37.50
2018-03-19T07:42:21.326Z,30.80
2018-03-19T07:44:48.887Z,33.07
2018-03-19T07:47:16.579Z,24.40
2018-03-19T07:49:44.230Z,36.10
2018-03-19T07:52:11.872Z,47.07
2018-03-19T07:54:39.446Z,31.40
2018-03-19T07:57:07.007Z,24.07
2018-03-19T07:59:34.578Z,26.33
2018-03-19T08:02:02.220Z,28.47
2018-03-19T08:04:29.804Z,23.20
2018-03-19T08:06:57.422Z,37.70
2018-03-19T08:09:25.071Z,27.27
2018-03-19T08:11:52.648Z,26.40
2018-03-19T08:14:20.215Z,26.20
2018-03-19T08:16:47.843Z,25.90
2018-03-19T08:19:15.402Z,60.57
2018-03-19T08:21:43.018Z,27.93
2018-03-19T08:24:10.639Z,29.50
2018-03-19T08:26:38.267Z,28.57
2018-03-19T08:29:05.838Z,18.10
2018-03-19T08:31:33.406Z,22.03
2018-03-19T08:34:00.996Z,17.27
2018-03-19T08:36:28.616Z,16.80
2018-03-19T08:38:56.246Z,15.47
2018-03-19T08:41:23.879Z,32.63
2018-03-19T08:43:51.540Z,30.07
2018-03-19T08:46:19.179Z,20.67
2018-03-19T08:48:46.784Z,16.17
2018-03-19T08:51:14.418Z,21.50
2018-03-19T08:53:41.982Z,19.77
2018-03-19T08:56:09.607Z,18.70
2018-03-19T08:58:37.216Z,19.00
2018-03-19T09:01:04.772Z,17.73
2018-03-19T09:03:32.402Z,23.27
2018-03-19T09:05:59.973Z,19.90
2018-03-19T09:08:27.660Z,26.50
2018-03-19T09:10:55.279Z,20.63
2018-03-19T09:13:22.842Z,25.67
2018-03-19T09:15:50.470Z,33.07
2018-03-19T09:18:18.047Z,21.27
2018-03-19T09:20:45.617Z,22.90
2018-03-19T09:23:13.189Z,20.07
2018-03-19T09:25:40.861Z,19.13
2018-03-19T09:28:08.439Z,21.77
2018-03-19T09:30:36.054Z,18.47
2018-03-19T09:33:03.673Z,17.50
2018-03-19T09:35:31.230Z,20.10
2018-03-19T09:37:58.876Z,22.50
2018-03-19T09:40:26.448Z,26.90
2018-03-19T09:42:54.015Z,24.43
2018-03-19T09:45:21.590Z,18.50
2018-03-19T09:47:49.158Z,15.77
2018-03-19T09:50:16.731Z,18.97
2018-03-19T09:52:44.292Z,20.20
2018-03-19T09:55:11.985Z,17.10
2018-03-19T09:57:39.550Z,15.13
2018-03-19T10:00:07.175Z,18.33
2018-03-19T10:02:34.807Z,21.47
2018-03-19T10:05:02.369Z,18.90
2018-03-19T10:07:29.981Z,23.37
2018-03-19T10:09:57.558Z,19.40
2018-03-19T10:12:25.246Z,19.40
2018-03-19T10:14:52.868Z,20.30
2018-03-19T10:17:20.434Z,20.23
2018-03-19T10:19:48.003Z,19.57
2018-03-19T10:22:15.627Z,20.10
2018-03-19T10:24:43.226Z,18.07
2018-03-19T10:27:10.796Z,23.43
2018-03-19T10:29:38.430Z,19.37
2018-03-19T10:32:06.068Z,19.00
2018-03-19T10:34:33.648Z,24.77
2018-03-19T10:37:01.283Z,17.50
2018-03-19T10:39:28.839Z,20.90
2018-03-19T10:41:56.415Z,19.70
2018-03-19T10:44:23.974Z,21.67
2018-03-19T10:46:51.541Z,20.63
2018-03-19T10:49:19.107Z,24.03
2018-03-19T10:51:46.724Z,27.53
2018-03-19T10:54:14.293Z,24.07
2018-03-19T10:56:41.861Z,19.77
2018-03-19T10:59:09.431Z,22.63
2018-03-19T11:01:42.521Z,19.70
2018-03-19T11:04:14.462Z,23.30
2018-03-19T11:06:47.563Z,20.83
2018-03-19T11:09:20.623Z,19.43
2018-03-19T11:15:46.311Z,16.70
2018-03-19T11:18:13.923Z,24.93
2018-03-19T11:20:41.572Z,20.93
2018-03-19T11:23:09.198Z,24.13
2018-03-19T11:25:36.880Z,36.43
2018-03-19T11:28:04.450Z,20.83
2018-03-19T11:30:32.014Z,27.43
2018-03-19T11:32:59.597Z,20.00
2018-03-19T11:35:27.166Z,25.70
2018-03-19T11:37:55.300Z,32.50
2018-03-19T11:40:22.881Z,27.57
2018-03-19T11:42:50.514Z,19.60
2018-03-19T11:45:18.105Z,41.43
2018-03-19T11:47:46.311Z,25.80
2018-03-19T11:50:14.746Z,31.80
2018-03-19T11:52:43.896Z,23.90
2018-03-19T11:55:11.486Z,24.97
2018-03-19T11:57:41.774Z,43.57
2018-03-19T12:00:10.217Z,27.00
2018-03-19T12:02:37.796Z,24.67
2018-03-19T12:05:05.386Z,27.67
2018-03-19T12:07:32.962Z,32.57
2018-03-19T12:10:00.546Z,42.23
2018-03-19T12:15:17.420Z,30.17
2018-03-19T12:17:45.055Z,24.90
2018-03-19T12:20:13.056Z,32.70
2018-03-19T12:22:40.702Z,32.83
2018-03-19T12:25:08.270Z,28.77
2018-03-19T12:27:35.860Z,41.40
2018-03-19T12:30:04.122Z,30.20
2018-03-19T12:32:31.698Z,29.03
2018-03-19T12:34:59.270Z,34.87
2018-03-19T12:37:26.843Z,20.13
2018-03-19T12:39:54.414Z,25.63
2018-03-19T12:42:22.988Z,23.70
2018-03-19T12:44:52.662Z,22.90
2018-03-19T12:47:20.259Z,20.50
2018-03-19T12:49:48.768Z,23.77
2018-03-19T12:52:16.342Z,24.83
2018-03-19T12:54:43.927Z,23.20
2018-03-19T12:57:11.534Z,18.37
2018-03-19T12:59:39.690Z,18.90
2018-03-19T13:02:09.240Z,21.77
2018-03-19T13:04:39.488Z,28.53
2018-03-19T13:07:07.100Z,19.40
2018-03-19T13:09:34.660Z,27.80
2018-03-19T13:12:02.808Z,18.23
2018-03-19T13:14:30.384Z,21.17
2018-03-19T13:16:57.947Z,29.43
2018-03-19T13:19:26.350Z,22.50
2018-03-19T13:21:54.009Z,19.40
2018-03-19T13:24:21.615Z,19.80
2018-03-19T13:26:49.177Z,39.77
2018-03-19T13:29:16.738Z,33.57
2018-03-19T13:31:44.363Z,22.30
2018-03-19T13:34:11.913Z,32.43
2018-03-19T13:36:39.482Z,20.20
2018-03-19T13:39:07.046Z,26.60
2018-03-19T13:41:34.651Z,44.97
2018-03-19T13:44:02.220Z,21.23
2018-03-19T13:46:29.814Z,22.60
2018-03-19T13:48:57.386Z,27.97
2018-03-19T13:51:24.956Z,33.60
2018-03-19T13:53:52.530Z,25.20
2018-03-19T13:56:20.094Z,33.43
2018-03-19T13:58:48.617Z,40.83
2018-03-19T14:01:16.220Z,25.10
2018-03-19T14:03:43.846Z,32.30
2018-03-19T14:06:11.412Z,22.67
2018-03-19T14:08:38.979Z,28.70
2018-03-19T14:11:06.551Z,50.37
2018-03-19T14:13:34.831Z,58.03
2018-03-19T14:16:02.399Z,44.03
2018-03-19T14:18:31.152Z,44.37
2018-03-19T14:20:58.734Z,37.53
2018-03-19T14:23:26.299Z,47.53
2018-03-19T14:25:53.898Z,35.03
2018-03-19T14:28:21.463Z,33.40
2018-03-19T14:30:49.035Z,28.73
2018-03-19T14:33:16.605Z,26.43
2018-03-19T14:35:44.173Z,39.40
2018-03-19T14:38:11.758Z,38.13
2018-03-19T14:40:39.322Z,34.10
2018-03-19T14:43:06.895Z,43.23
2018-03-19T14:45:34.471Z,45.03
2018-03-19T14:48:02.110Z,43.40
2018-03-19T14:50:29.773Z,31.40
2018-03-19T14:52:57.292Z,51.83
2018-03-19T14:55:24.862Z,85.20
2018-03-19T14:57:52.423Z,74.07
2018-03-19T15:00:20.018Z,61.97
2018-03-19T15:02:47.604Z,65.70
2018-03-19T15:05:15.174Z,53.37
2018-03-19T15:07:42.738Z,58.87
2018-03-19T15:10:10.341Z,73.63
2018-03-19T15:12:37.995Z,78.00
2018-03-19T15:15:05.557Z,54.80
2018-03-19T15:17:33.205Z,79.47
2018-03-19T15:20:00.768Z,112.83
2018-03-19T15:22:28.348Z,106.43
2018-03-19T15:24:55.911Z,82.60
2018-03-19T15:27:23.477Z,68.27
2018-03-19T15:29:51.049Z,108.20
2018-03-19T15:32:18.650Z,66.17
2018-03-19T15:34:46.222Z,63.00
2018-03-19T15:37:13.789Z,74.27
2018-03-19T15:39:41.442Z,57.93
2018-03-19T15:42:09.003Z,61.70
2018-03-19T15:44:36.578Z,87.73
2018-03-19T15:47:04.142Z,59.57
2018-03-19T15:49:31.710Z,62.93
2018-03-19T15:51:59.307Z,83.83
2018-03-19T15:54:26.922Z,62.40
2018-03-19T15:56:54.494Z,148.77
2018-03-19T15:59:22.073Z,64.13
2018-03-19T16:01:49.646Z,70.37
2018-03-19T16:04:17.223Z,67.73
2018-03-19T16:06:44.796Z,62.93
2018-03-19T16:09:12.357Z,82.00
2018-03-19T16:11:39.963Z,90.53
2018-03-19T16:14:07.543Z,83.50
2018-03-19T16:16:35.152Z,70.67
2018-03-19T16:19:02.727Z,98.23
2018-03-19T16:21:30.317Z,75.00
2018-03-19T16:23:57.897Z,64.17
2018-03-19T16:26:25.506Z,70.80
2018-03-19T16:28:53.089Z,73.00
2018-03-19T16:31:20.690Z,72.33
2018-03-19T16:33:48.265Z,60.80
2018-03-19T16:36:15.836Z,72.97
2018-03-19T16:38:43.452Z,84.80
2018-03-19T16:41:11.023Z,76.43
2018-03-19T16:43:38.581Z,82.17
2018-03-19T16:46:06.167Z,75.70
2018-03-19T16:48:33.729Z,86.77
2018-03-19T16:51:01.294Z,78.27
2018-03-19T16:53:28.858Z,85.67
2018-03-19T16:55:56.471Z,374.23
2018-03-19T16:58:24.052Z,152.50
2018-03-19T17:00:51.619Z,81.27
2018-03-19T17:03:19.188Z,76.80
2018-03-19T17:05:46.770Z,70.87
2018-03-19T17:08:14.346Z,83.03
2018-03-19T17:10:41.919Z,75.83
2018-03-19T17:13:09.528Z,78.70
2018-03-19T17:15:37.088Z,74.93
2018-03-19T17:18:04.664Z,80.07
2018-03-19T17:20:32.247Z,77.97
2018-03-19T17:22:59.814Z,76.23
2018-03-19T17:25:27.390Z,72.43
2018-03-19T17:27:54.964Z,69.20
2018-03-19T17:30:22.644Z,75.17
2018-03-19T17:32:50.199Z,71.03
2018-03-19T17:35:17.759Z,86.20
2018-03-19T17:37:45.329Z,71.40
2018-03-19T17:40:12.913Z,94.07
2018-03-19T17:42:40.496Z,102.10
2018-03-19T17:45:08.058Z,56.30
2018-03-19T17:47:35.639Z,72.47
2018-03-19T17:50:03.225Z,77.17
2018-03-19T17:52:31.719Z,83.67
2018-03-19T17:54:59.360Z,70.13
2018-03-19T17:57:26.991Z,75.60
2018-03-19T17:59:54.565Z,65.90
2018-03-19T18:02:22.210Z,59.93
2018-03-19T18:04:49.842Z,82.87
2018-03-19T18:07:17.402Z,85.47
2018-03-19T18:09:44.974Z,99.33
2018-03-19T18:12:12.546Z,116.80
2018-03-19T18:14:40.190Z,118.03
2018-03-19T18:17:07.778Z,107.80
2018-03-19T18:19:35.343Z,95.13
2018-03-19T18:22:02.959Z,104.50
2018-03-19T18:24:30.534Z,78.47
2018-03-19T18:26:58.110Z,95.70
2018-03-19T18:29:25.750Z,79.40
2018-03-19T18:31:53.344Z,101.87
2018-03-19T18:34:20.904Z,81.37
2018-03-19T18:36:48.584Z,98.70
2018-03-19T18:39:16.210Z,82.50
2018-03-19T18:41:43.835Z,97.13
2018-03-19T18:44:11.456Z,148.80
2018-03-19T18:46:39.080Z,58.70
2018-03-19T18:49:06.665Z,66.57
2018-03-19T18:51:34.733Z,80.80
2018-03-19T18:54:02.443Z,78.43
2018-03-19T18:56:30.077Z,91.17
2018-03-19T18:58:57.643Z,80.07
2018-03-19T19:01:25.231Z,77.70
2018-03-19T19:03:52.890Z,77.33
2018-03-19T19:06:20.526Z,85.60
2018-03-19T19:08:48.213Z,100.63
2018-03-19T19:11:15.844Z,83.30
2018-03-19T19:13:43.422Z,99.00
2018-03-19T19:16:10.995Z,81.53
2018-03-19T19:18:38.570Z,91.20
2018-03-19T19:21:06.130Z,84.63
2018-03-19T19:23:33.707Z,87.50
2018-03-19T19:26:01.274Z,82.57
2018-03-19T19:28:28.864Z,70.40
2018-03-19T19:30:56.487Z,78.63
2018-03-19T19:33:24.061Z,92.53
2018-03-19T19:35:51.776Z,77.10
2018-03-19T19:38:19.399Z,69.87
2018-03-19T19:40:46.966Z,76.90
2018-03-19T19:43:14.527Z,63.63
2018-03-19T19:45:42.106Z,65.03
2018-03-19T19:48:09.736Z,69.20
2018-03-19T19:50:37.312Z,60.63
2018-03-19T19:53:04.892Z,77.30
2018-03-19T19:55:32.463Z,67.30
2018-03-19T19:58:00.036Z,68.20
2018-03-19T20:00:27.681Z,58.77
2018-03-19T20:02:55.313Z,87.83
2018-03-19T20:05:22.925Z,61.03
2018-03-19T20:07:50.559Z,61.60
2018-03-19T20:10:18.168Z,99.50
2018-03-19T20:12:45.745Z,63.07
2018-03-19T20:15:13.336Z,70.90
2018-03-19T20:17:40.914Z,64.73
2018-03-19T20:20:08.480Z,73.13
2018-03-19T20:22:36.059Z,75.20
2018-03-19T20:25:03.628Z,83.40
2018-03-19T20:27:31.375Z,78.40
2018-03-19T20:29:58.919Z,68.20
2018-03-19T20:32:26.479Z,64.57
2018-03-19T20:34:54.051Z,90.63
2018-03-19T20:37:21.634Z,59.33
2018-03-19T20:39:49.218Z,71.07
2018-03-19T20:42:16.780Z,66.80
2018-03-19T20:44:44.360Z,129.53
2018-03-19T20:47:12.034Z,99.47
2018-03-19T20:49:39.676Z,73.00
2018-03-19T20:52:07.245Z,94.63
2018-03-19T20:54:34.834Z,79.40
2018-03-19T20:57:02.403Z,58.33
2018-03-19T20:59:30.043Z,80.63
2018-03-19T21:01:57.626Z,70.23
2018-03-19T21:04:25.196Z,71.33
2018-03-19T21:06:52.765Z,71.27
2018-03-19T21:09:22.305Z,98.57
2018-03-19T21:11:49.878Z,72.60
2018-03-19T21:14:17.446Z,68.60
2018-03-19T21:16:45.150Z,56.87
2018-03-19T21:19:12.776Z,55.10
2018-03-19T21:21:40.403Z,47.27
2018-03-19T21:24:08.032Z,51.70
2018-03-19T21:26:35.607Z,60.43
2018-03-19T21:29:03.195Z,55.50
2018-03-19T21:31:30.831Z,47.57
2018-03-19T21:33:58.451Z,47.47
2018-03-19T21:36:26.079Z,41.67
2018-03-19T21:38:53.643Z,46.33
2018-03-19T21:41:21.223Z,42.67
2018-03-19T21:43:48.843Z,45.90
2018-03-19T21:46:16.420Z,38.60
2018-03-19T21:48:44.042Z,40.80
2018-03-19T21:51:11.663Z,35.40
2018-03-19T21:53:39.259Z,37.40
2018-03-19T21:56:06.822Z,33.03
2018-03-19T21:58:34.433Z,35.13
2018-03-19T22:01:02.002Z,34.60
2018-03-19T22:03:29.637Z,41.70
2018-03-19T22:05:57.269Z,28.07
2018-03-19T22:08:24.887Z,38.07
2018-03-19T22:10:52.462Z,32.00
2018-03-19T22:13:20.092Z,25.43
2018-03-19T22:15:47.666Z,29.93
2018-03-19T22:18:15.235Z,37.30
2018-03-19T22:20:42.818Z,33.10
2018-03-19T22:23:10.442Z,29.20
2018-03-19T22:25:38.024Z,27.10
2018-03-19T22:28:05.656Z,26.33
2018-03-19T22:30:33.338Z,28.23
2018-03-19T22:33:00.960Z,31.37
2018-03-19T22:35:28.529Z,29.10
2018-03-19T22:37:56.163Z,33.90
2018-03-19T22:40:23.736Z,29.20
2018-03-19T22:42:51.331Z,35.60
2018-03-19T22:45:18.899Z,36.23
2018-03-19T22:47:46.586Z,32.80
2018-03-19T22:50:14.150Z,27.37
2018-03-19T22:52:41.766Z,32.10
2018-03-19T22:55:09.332Z,28.10
2018-03-19T22:57:36.895Z,31.30
2018-03-19T23:00:04.551Z,32.80
2018-03-19T23:02:32.171Z,31.00
2018-03-19T23:08:01.565Z,30.07
2018-03-19T23:10:29.191Z,27.23
2018-03-19T23:12:56.810Z,24.93
2018-03-19T23:15:24.382Z,33.07
2018-03-19T23:17:52.030Z,25.20
2018-03-19T23:20:19.609Z,21.60
2018-03-19T23:22:47.249Z,28.27
2018-03-19T23:25:14.836Z,22.67
2018-03-19T23:27:42.454Z,25.80
2018-03-19T23:30:10.052Z,24.27
2018-03-19T23:32:37.619Z,20.97
2018-03-19T23:35:05.236Z,25.90
2018-03-19T23:37:32.806Z,23.87
2018-03-19T23:40:00.394Z,26.73
2018-03-19T23:42:27.954Z,21.30
2018-03-19T23:44:55.526Z,21.50
2018-03-19T23:47:23.109Z,27.50
2018-03-19T23:49:50.753Z,20.23
2018-03-19T23:52:18.319Z,21.93
2018-03-19T23:54:45.878Z,20.73
2018-03-19T23:57:13.448Z,21.80
2018-03-19T23:59:41.032Z,20.20
